Time;durP1;ratioP1;P1;durP2;ratioP2;P2;SDS_P1;SDS_P2;PMS_P1;PMS_P2;Temp;Humidity;BMP_temperature;BMP_pressure;BME280_temperature;BME280_humidity;BME280_pressure;Samples;Min_cycle;Max_cycle;Signal;HPM_P1;HPM_P2
2023/01/03 00:01:50;;;;;;;;;;;;;;;8.55;100.00;97700.34;5025959;28;20408;-67
2023/01/03 00:04:16;;;;;;;;;;;;;;;8.54;100.00;97708.88;5021570;28;19943;-67
2023/01/03 00:06:45;;;;;;;;;;;;;;;8.51;100.00;97710.31;5024672;28;20289;-68
2023/01/03 00:09:12;;;;;;;;;;;;;;;8.47;100.00;97705.84;5021372;28;20381;-67
2023/01/03 00:14:24;;;;;;;;;;;;;;;8.55;100.00;97714.00;5021180;28;20558;-67
2023/01/03 00:16:51;;;;;;;;;;;;;;;8.58;100.00;97704.34;5024611;28;19921;-66
2023/01/03 00:19:16;;;;;;;;;;;;;;;8.51;100.00;97712.25;5020343;28;20011;-66
2023/01/03 00:21:42;;;;;;;;;;;;;;;8.63;100.00;97709.63;5023436;28;20468;-68
2023/01/03 00:24:08;;;;;;;;;;;;;;;8.63;100.00;97717.81;5020485;28;19924;-65
2023/01/03 00:26:33;;;;;;;;;;;;;;;8.66;100.00;97724.53;5023587;28;19976;-68
2023/01/03 00:28:59;;;;;;;;;;;;;;;8.67;100.00;97721.47;5025792;28;19921;-68
2023/01/03 00:31:24;;;;;;;;;;;;;;;8.83;100.00;97724.47;5020007;28;20018;-69
2023/01/03 00:33:50;;;;;;;;;;;;;;;8.75;100.00;97714.38;5022217;28;20457;-68
2023/01/03 00:36:15;;;;;;;;;;;;;;;8.75;100.00;97720.66;5019871;28;19921;-68
2023/01/03 00:38:41;;;;;;;;;;;;;;;8.69;100.00;97724.69;5025402;28;20042;-68
2023/01/03 00:41:07;;;;;;;;;;;;;;;8.59;100.00;97725.88;5018359;28;19917;-67
2023/01/03 00:43:33;;;;;;;;;;;;;;;8.53;100.00;97715.44;5025539;28;20012;-67
2023/01/03 00:45:58;;;;;;;;;;;;;;;8.46;100.00;97710.50;5023327;28;20016;-68
2023/01/03 00:48:24;;;;;;;;;;;;;;;8.35;100.00;97720.94;5018242;28;19921;-68
2023/01/03 00:50:49;;;;;;;;;;;;;;;8.30;100.00;97723.06;5023156;28;19925;-67
2023/01/03 00:53:14;;;;;;;;;;;;;;;8.24;100.00;97720.50;5018447;28;19923;-68
2023/01/03 00:55:39;;;;;;;;;;;;;;;8.22;100.00;97720.03;5023792;28;19921;-66
2023/01/03 00:58:05;;;;;;;;;;;;;;;8.18;100.00;97723.75;5019027;28;19978;-64
2023/01/03 01:00:30;;;;;;;;;;;;;;;8.15;100.00;97722.44;5024828;28;19921;-68
2023/01/03 01:02:55;;;;;;;;;;;;;;;8.08;100.00;97724.09;5025166;28;19917;-72
2023/01/03 01:05:21;;;;;;;;;;;;;;;8.03;100.00;97720.41;5020822;28;20271;-67
2023/01/03 01:07:46;;;;;;;;;;;;;;;8.01;100.00;97724.56;5024652;28;19921;-71
2023/01/03 01:10:11;;;;;;;;;;;;;;;7.97;100.00;97716.25;5020242;28;19933;-67
2023/01/03 01:12:36;;;;;;;;;;;;;;;7.92;100.00;97719.13;5024824;28;20421;-68
2023/01/03 01:15:02;;;;;;;;;;;;;;;7.89;100.00;97714.34;5025213;28;20015;-65
2023/01/03 01:17:27;;;;;;;;;;;;;;;7.88;100.00;97718.19;5023305;28;19950;-68
2023/01/03 01:19:53;;;;;;;;;;;;;;;7.90;100.00;97718.66;5006102;28;19924;-67
2023/01/03 01:22:18;;;;;;;;;;;;;;;7.83;100.00;97721.91;5003424;28;19917;-71
2023/01/03 01:24:44;;;;;;;;;;;;;;;7.84;100.00;97725.41;5024541;28;20108;-68
2023/01/03 01:27:09;;;;;;;;;;;;;;;7.74;100.00;97729.31;5019804;28;20362;-68
2023/01/03 01:29:35;;;;;;;;;;;;;;;7.68;100.00;97735.22;5025099;28;20015;-69
2023/01/03 01:32:01;;;;;;;;;;;;;;;7.69;100.00;97732.19;5030194;28;20378;-68
2023/01/03 01:34:27;;;;;;;;;;;;;;;7.74;100.00;97733.94;5022467;28;19921;-66
2023/01/03 01:36:52;;;;;;;;;;;;;;;7.75;100.00;97732.81;5024506;28;19921;-69
2023/01/03 01:39:21;;;;;;;;;;;;;;;7.76;100.00;97734.41;5024332;28;19920;-68
2023/01/03 01:44:52;;;;;;;;;;;;;;;7.71;100.00;97731.88;5034988;28;19917;-68
2023/01/03 01:47:20;;;;;;;;;;;;;;;7.73;100.00;97726.88;5031957;28;19960;-69
2023/01/03 01:49:46;;;;;;;;;;;;;;;7.78;100.00;97727.53;5027590;28;19921;-68
2023/01/03 01:52:13;;;;;;;;;;;;;;;7.86;100.00;97734.06;5021267;28;19927;-67
2023/01/03 01:54:40;;;;;;;;;;;;;;;7.90;100.00;97735.03;5022462;28;19964;-68
2023/01/03 01:57:06;;;;;;;;;;;;;;;7.84;100.00;97742.56;5018499;28;20409;-68
2023/01/03 01:59:31;;;;;;;;;;;;;;;7.78;100.00;97732.97;5022578;28;19917;-70
2023/01/03 02:01:57;;;;;;;;;;;;;;;7.80;100.00;97730.72;5020673;28;19940;-68
2023/01/03 02:04:24;;;;;;;;;;;;;;;7.91;100.00;97728.47;5019093;28;19924;-68
2023/01/03 02:06:50;;;;;;;;;;;;;;;8.20;100.00;97716.81;5023766;28;20015;-67
2023/01/03 02:09:16;;;;;;;;;;;;;;;8.29;100.00;97716.78;5027713;28;19975;-68
2023/01/03 02:14:46;;;;;;;;;;;;;;;7.95;100.00;97718.50;5015962;28;19917;-68
2023/01/03 02:17:11;;;;;;;;;;;;;;;7.82;100.00;97714.84;5066814;22;20008;-71
2023/01/03 02:19:36;;;;;;;;;;;;;;;7.72;100.00;97715.16;5071019;28;20347;-72
2023/01/03 02:22:02;;;;;;;;;;;;;;;7.62;100.00;97721.75;5061333;28;19920;-71
2023/01/03 02:24:33;;;;;;;;;;;;;;;7.57;100.00;97726.56;5079465;28;19920;-71
2023/01/03 02:27:13;;;;;;;;;;;;;;;7.52;100.00;97727.53;5082064;28;19920;-71
2023/01/03 02:29:57;;;;;;;;;;;;;;;7.52;100.00;97719.34;5082306;28;19974;-71
2023/01/03 02:32:43;;;;;;;;;;;;;;;7.69;100.00;97723.19;5077823;28;20414;-71
2023/01/03 02:35:17;;;;;;;;;;;;;;;7.80;100.00;97719.03;5077813;28;20073;-71
2023/01/03 02:38:01;;;;;;;;;;;;;;;7.77;100.00;97720.44;5063561;28;19920;-71
2023/01/03 02:40:46;;;;;;;;;;;;;;;7.77;100.00;97728.63;5077896;28;19924;-71
2023/01/03 02:43:13;;;;;;;;;;;;;;;7.79;100.00;97722.84;5077831;28;19920;-71
2023/01/03 02:45:51;;;;;;;;;;;;;;;7.76;100.00;97726.22;5081561;28;19920;-72
2023/01/03 02:48:22;;;;;;;;;;;;;;;7.80;100.00;97729.94;5075803;28;20005;-72
2023/01/03 02:50:50;;;;;;;;;;;;;;;7.77;100.00;97730.56;5081797;28;20324;-71
2023/01/03 02:53:18;;;;;;;;;;;;;;;7.69;100.00;97745.81;5077855;28;19999;-71
2023/01/03 02:55:48;;;;;;;;;;;;;;;7.74;100.00;97729.31;5081673;28;19916;-71
2023/01/03 02:58:16;;;;;;;;;;;;;;;7.70;100.00;97732.97;5077617;28;19934;-71
2023/01/03 03:00:44;;;;;;;;;;;;;;;7.69;100.00;97743.09;5082036;28;19965;-71
2023/01/03 03:03:11;;;;;;;;;;;;;;;7.74;100.00;97732.03;5077484;28;19920;-71
2023/01/03 03:05:51;;;;;;;;;;;;;;;7.75;100.00;97725.44;5081471;28;19920;-71
2023/01/03 03:08:17;;;;;;;;;;;;;;;7.77;100.00;97716.94;5077530;28;20384;-71
2023/01/03 03:13:33;;;;;;;;;;;;;;;7.65;100.00;97725.75;5076470;28;19920;-71
2023/01/03 03:16:08;;;;;;;;;;;;;;;7.64;100.00;97716.78;5060551;28;19920;-72
2023/01/03 03:18:39;;;;;;;;;;;;;;;7.61;100.00;97717.41;5070409;28;19946;-71
2023/01/03 03:26:52;;;;;;;;;;;;;;;7.20;100.00;97707.00;5069481;28;19931;-71
2023/01/03 03:29:18;;;;;;;;;;;;;;;7.04;100.00;97712.09;5093293;28;19988;-72
2023/01/03 03:31:45;;;;;;;;;;;;;;;6.94;100.00;97709.72;5081962;28;20010;-71
2023/01/03 03:34:11;;;;;;;;;;;;;;;6.84;100.00;97714.34;5075572;28;20011;-72
2023/01/03 03:36:56;;;;;;;;;;;;;;;6.80;100.00;97712.56;5062751;28;20016;-72
2023/01/03 03:45:02;;;;;;;;;;;;;;;6.96;100.00;97724.59;5050602;28;20011;-71
2023/01/03 03:47:42;;;;;;;;;;;;;;;7.03;100.00;97726.88;5078257;28;19966;-72
2023/01/03 03:50:17;;;;;;;;;;;;;;;7.05;100.00;97721.91;5074970;28;19920;-71
2023/01/03 03:52:45;;;;;;;;;;;;;;;7.08;100.00;97726.72;5081631;28;20007;-71
2023/01/03 03:55:29;;;;;;;;;;;;;;;7.21;100.00;97735.88;5076398;28;19959;-72
2023/01/03 03:58:02;;;;;;;;;;;;;;;7.27;100.00;97742.75;5083906;28;19927;-71
2023/01/03 04:00:30;;;;;;;;;;;;;;;7.33;100.00;97735.22;5041865;28;20403;-71
2023/01/03 04:02:56;;;;;;;;;;;;;;;7.36;100.00;97726.41;5082302;28;20030;-71
2023/01/03 04:05:23;;;;;;;;;;;;;;;7.36;100.00;97724.47;5077227;28;20334;-70
2023/01/03 04:07:49;;;;;;;;;;;;;;;7.36;100.00;97729.94;5080942;28;19916;-71
2023/01/03 04:10:19;;;;;;;;;;;;;;;7.40;100.00;97727.38;5058386;28;19928;-71
2023/01/03 04:12:47;;;;;;;;;;;;;;;7.39;100.00;97720.31;5079369;28;20000;-71
2023/01/03 04:15:13;;;;;;;;;;;;;;;7.12;100.00;97726.88;5054397;28;19916;-71
2023/01/03 04:17:38;;;;;;;;;;;;;;;6.85;100.00;97723.31;5060838;28;19921;-71
2023/01/03 04:20:03;;;;;;;;;;;;;;;6.66;100.00;97727.09;5077629;28;19916;-70
2023/01/03 04:22:29;;;;;;;;;;;;;;;6.57;100.00;97723.56;5080109;28;19920;-71
2023/01/03 04:24:54;;;;;;;;;;;;;;;6.55;100.00;97722.25;5043749;28;20334;-71
2023/01/03 04:27:19;;;;;;;;;;;;;;;6.70;100.00;97724.56;5070906;28;19965;-72
2023/01/03 04:29:45;;;;;;;;;;;;;;;6.82;100.00;97724.72;5085234;28;20601;-72
2023/01/03 04:32:10;;;;;;;;;;;;;;;6.91;100.00;97722.03;5061560;28;19920;-72
2023/01/03 04:34:35;;;;;;;;;;;;;;;6.95;100.00;97723.00;5066520;28;19916;-72
2023/01/03 04:37:01;;;;;;;;;;;;;;;7.00;100.00;97722.03;5065767;28;19931;-72
2023/01/03 04:39:26;;;;;;;;;;;;;;;6.99;100.00;97720.47;5079866;28;19920;-72
2023/01/03 04:41:51;;;;;;;;;;;;;;;7.00;100.00;97725.56;5085326;28;19920;-73
2023/01/03 04:44:17;;;;;;;;;;;;;;;6.99;100.00;97729.44;5078996;28;19920;-72
2023/01/03 04:46:42;;;;;;;;;;;;;;;6.98;100.00;97722.34;5066720;28;19927;-71
2023/01/03 04:49:08;;;;;;;;;;;;;;;6.93;100.00;97727.16;5079295;28;20388;-71
2023/01/03 04:51:33;;;;;;;;;;;;;;;6.89;100.00;97727.00;5085057;28;20010;-71
2023/01/03 04:53:59;;;;;;;;;;;;;;;6.94;100.00;97729.56;5084267;28;20014;-71
2023/01/03 04:56:26;;;;;;;;;;;;;;;6.94;100.00;97728.78;5079392;28;19963;-72
2023/01/03 04:58:51;;;;;;;;;;;;;;;7.00;100.00;97728.28;5085018;28;19924;-72
2023/01/03 05:01:17;;;;;;;;;;;;;;;7.07;100.00;97728.63;5079697;28;20281;-73
2023/01/03 05:03:42;;;;;;;;;;;;;;;7.12;100.00;97741.28;5085755;28;19916;-72
2023/01/03 05:06:08;;;;;;;;;;;;;;;7.19;100.00;97727.22;5078899;28;20022;-72
2023/01/03 05:08:33;;;;;;;;;;;;;;;7.25;100.00;97725.91;5084506;28;19925;-73
2023/01/03 05:10:58;;;;;;;;;;;;;;;7.28;100.00;97728.81;5082879;28;19962;-73
2023/01/03 05:13:24;;;;;;;;;;;;;;;7.31;100.00;97730.09;5071727;28;19995;-73
2023/01/03 05:15:49;;;;;;;;;;;;;;;7.31;100.00;97724.66;5076252;28;19923;-73
2023/01/03 05:18:14;;;;;;;;;;;;;;;7.33;100.00;97735.22;5053758;28;19932;-72
2023/01/03 05:26:10;;;;;;;;;;;;;;;7.10;100.00;97749.00;5058280;28;19947;-70
2023/01/03 05:28:36;;;;;;;;;;;;;;;7.10;100.00;97750.91;5063963;28;20388;-70
2023/01/03 05:31:02;;;;;;;;;;;;;;;7.08;100.00;97751.22;5065069;28;19927;-69
2023/01/03 05:33:27;;;;;;;;;;;;;;;7.13;100.00;97750.25;5081115;28;19939;-72
2023/01/03 05:35:52;;;;;;;;;;;;;;;7.19;100.00;97757.19;5047401;28;19916;-72
2023/01/03 05:38:18;;;;;;;;;;;;;;;7.22;100.00;97745.63;5077656;28;19924;-72
2023/01/03 05:40:43;;;;;;;;;;;;;;;7.27;100.00;97753.66;5082526;28;20357;-72
2023/01/03 05:43:09;;;;;;;;;;;;;;;7.22;100.00;97762.78;5077861;28;19920;-72
2023/01/03 05:45:34;;;;;;;;;;;;;;;7.20;100.00;97765.03;5083636;28;19977;-72
2023/01/03 05:48:00;;;;;;;;;;;;;;;7.14;100.00;97771.75;5065567;28;19930;-72
2023/01/03 05:50:25;;;;;;;;;;;;;;;7.00;100.00;97780.03;5077298;28;20438;-71
2023/01/03 05:52:51;;;;;;;;;;;;;;;6.92;100.00;97772.66;5084586;28;20347;-72
2023/01/03 05:55:16;;;;;;;;;;;;;;;6.87;100.00;97775.53;5078614;28;20023;-71
2023/01/03 05:57:41;;;;;;;;;;;;;;;6.94;100.00;97775.88;5082852;28;19939;-72
2023/01/03 06:00:07;;;;;;;;;;;;;;;7.07;100.00;97772.19;5076175;28;19973;-71
2023/01/03 06:02:32;;;;;;;;;;;;;;;7.25;100.00;97772.25;5082369;28;19939;-72
2023/01/03 06:04:58;;;;;;;;;;;;;;;7.18;100.00;97775.44;5083260;28;20383;-71
2023/01/03 06:07:23;;;;;;;;;;;;;;;7.07;100.00;97772.19;5076275;28;19991;-71
2023/01/03 06:09:48;;;;;;;;;;;;;;;7.04;100.00;97774.75;5083032;28;19950;-72
2023/01/03 06:12:13;;;;;;;;;;;;;;;7.05;100.00;97781.81;5054453;28;19916;-71
2023/01/03 06:14:39;;;;;;;;;;;;;;;7.03;100.00;97779.41;5075015;28;19920;-71
2023/01/03 06:19:48;;;;;;;;;;;;;;;7.02;100.00;97790.63;5044058;28;20038;-72
2023/01/03 06:22:13;;;;;;;;;;;;;;;6.96;100.00;97798.16;5055279;28;19934;-72
2023/01/03 06:24:38;;;;;;;;;;;;;;;6.81;100.00;97793.94;5062215;28;19927;-71
2023/01/03 06:27:04;;;;;;;;;;;;;;;6.77;100.00;97801.13;5057958;28;20007;-69
2023/01/03 06:29:29;;;;;;;;;;;;;;;6.80;100.00;97797.75;5042599;28;19916;-72
2023/01/03 06:31:55;;;;;;;;;;;;;;;6.72;100.00;97803.16;5062598;28;19917;-71
2023/01/03 06:34:20;;;;;;;;;;;;;;;6.62;100.00;97802.34;5055891;28;20393;-72
2023/01/03 06:36:45;;;;;;;;;;;;;;;6.56;100.00;97806.31;5042098;28;19923;-71
2023/01/03 06:39:11;;;;;;;;;;;;;;;6.61;100.00;97802.66;5099335;28;19923;-71
2023/01/03 06:41:36;;;;;;;;;;;;;;;6.68;100.00;97797.56;5081983;28;19916;-72
2023/01/03 06:44:01;;;;;;;;;;;;;;;6.63;100.00;97812.13;5101327;28;20271;-69
2023/01/03 06:54:43;;;;;;;;;;;;;;;6.77;100.00;97817.47;5103057;28;19960;-72
2023/01/03 06:57:08;;;;;;;;;;;;;;;6.82;100.00;97822.75;5077601;28;19975;-72
2023/01/03 06:59:33;;;;;;;;;;;;;;;6.72;100.00;97823.06;5101549;28;20004;-72
2023/01/03 07:01:58;;;;;;;;;;;;;;;6.57;100.00;97832.44;5103075;28;19924;-73
2023/01/03 07:04:24;;;;;;;;;;;;;;;6.55;100.00;97826.47;5098573;28;20442;-72
2023/01/03 07:06:49;;;;;;;;;;;;;;;6.58;100.00;97831.31;5101560;28;19923;-70
2023/01/03 07:09:15;;;;;;;;;;;;;;;6.65;100.00;97836.31;5097404;28;20068;-73
2023/01/03 07:11:40;;;;;;;;;;;;;;;6.72;100.00;97839.38;5090671;28;19963;-73
2023/01/03 07:14:07;;;;;;;;;;;;;;;6.76;100.00;97834.91;5068469;28;20369;-71
2023/01/03 07:16:38;;;;;;;;;;;;;;;6.72;100.00;97833.13;5079073;28;19927;-72
2023/01/03 07:19:04;;;;;;;;;;;;;;;6.62;100.00;97834.22;5065287;28;19969;-71
2023/01/03 07:21:31;;;;;;;;;;;;;;;6.57;100.00;97834.34;5061629;28;20438;-72
2023/01/03 07:23:57;;;;;;;;;;;;;;;6.47;100.00;97838.94;5044518;28;19928;-72
2023/01/03 07:26:23;;;;;;;;;;;;;;;6.31;100.00;97838.50;5054395;28;20279;-71
2023/01/03 07:28:49;;;;;;;;;;;;;;;6.26;100.00;97846.81;5058920;28;19924;-70
2023/01/03 07:31:14;;;;;;;;;;;;;;;6.23;100.00;97846.63;5055912;28;20344;-72
2023/01/03 07:33:39;;;;;;;;;;;;;;;6.26;100.00;97841.38;5061975;28;20010;-71
2023/01/03 07:36:06;;;;;;;;;;;;;;;6.44;100.00;97841.47;5024107;28;19916;-70
2023/01/03 07:38:31;;;;;;;;;;;;;;;6.47;100.00;97841.66;5081631;28;19939;-71
2023/01/03 07:40:57;;;;;;;;;;;;;;;6.54;100.00;97852.09;5082790;28;19921;-71
2023/01/03 07:43:38;;;;;;;;;;;;;;;6.60;100.00;97855.50;5059676;28;20366;-72
2023/01/03 07:46:07;;;;;;;;;;;;;;;6.64;100.00;97851.81;5061031;28;20292;-70
2023/01/03 07:48:33;;;;;;;;;;;;;;;6.79;100.00;97857.97;5082251;28;20364;-72
2023/01/03 07:50:59;;;;;;;;;;;;;;;6.84;100.00;97853.22;5083693;28;19926;-73
2023/01/03 07:53:24;;;;;;;;;;;;;;;6.83;100.00;97858.97;5078514;28;19956;-72
2023/01/03 07:55:49;;;;;;;;;;;;;;;6.78;100.00;97862.63;5063126;28;19931;-71
2023/01/03 07:58:14;;;;;;;;;;;;;;;6.77;100.00;97857.50;5059627;28;19974;-72
2023/01/03 08:00:40;;;;;;;;;;;;;;;6.76;100.00;97859.41;5084156;28;20370;-72
2023/01/03 08:03:06;;;;;;;;;;;;;;;6.75;100.00;97863.25;5066918;28;19999;-71
2023/01/03 08:05:32;;;;;;;;;;;;;;;6.75;100.00;97867.91;5072380;28;19920;-72
2023/01/03 08:07:57;;;;;;;;;;;;;;;6.77;100.00;97866.50;5088446;28;19920;-72
2023/01/03 08:13:16;;;;;;;;;;;;;;;6.82;100.00;97870.97;5080937;28;19924;-70
2023/01/03 08:15:51;;;;;;;;;;;;;;;6.79;100.00;97875.16;5100074;28;19992;-70
2023/01/03 08:18:21;;;;;;;;;;;;;;;6.83;100.00;97881.56;5088868;28;19988;-72
2023/01/03 08:20:47;;;;;;;;;;;;;;;6.86;100.00;97882.84;5101811;28;19923;-70
2023/01/03 08:23:13;;;;;;;;;;;;;;;6.85;100.00;97873.88;5087715;28;20380;-71
2023/01/03 08:25:38;;;;;;;;;;;;;;;6.95;100.00;97881.00;5085516;28;19928;-72
2023/01/03 08:28:05;;;;;;;;;;;;;;;6.94;100.00;97878.56;5080941;28;19920;-68
2023/01/03 08:30:30;;;;;;;;;;;;;;;6.93;100.00;97879.69;5085194;28;20022;-72
2023/01/03 08:32:56;;;;;;;;;;;;;;;6.98;100.00;97887.72;5083771;28;20353;-72
2023/01/03 08:35:25;;;;;;;;;;;;;;;6.83;100.00;97886.22;5075006;28;20351;-70
2023/01/03 08:37:53;;;;;;;;;;;;;;;6.77;100.00;97882.81;5067223;28;20292;-70
2023/01/03 08:40:18;;;;;;;;;;;;;;;6.61;100.00;97879.69;5081184;28;19916;-74
2023/01/03 08:42:45;;;;;;;;;;;;;;;6.48;100.00;97891.44;5084889;28;19916;-72
2023/01/03 08:45:12;;;;;;;;;;;;;;;6.48;100.00;97884.09;5082651;28;19950;-71
2023/01/03 08:47:38;;;;;;;;;;;;;;;6.43;100.00;97895.13;5084551;28;19916;-70
2023/01/03 08:50:04;;;;;;;;;;;;;;;6.47;100.00;97892.56;5081144;28;19973;-69
2023/01/03 08:52:29;;;;;;;;;;;;;;;6.50;100.00;97902.84;5085107;28;19920;-72
2023/01/03 08:54:54;;;;;;;;;;;;;;;6.55;100.00;97896.47;5062680;28;19923;-71
2023/01/03 08:57:20;;;;;;;;;;;;;;;6.49;100.00;97893.06;5078402;28;19927;-73
2023/01/03 08:59:45;;;;;;;;;;;;;;;6.47;100.00;97893.38;5086590;28;19927;-70
2023/01/03 09:02:11;;;;;;;;;;;;;;;6.50;100.00;97898.19;5063386;28;19927;-73
2023/01/03 09:04:36;;;;;;;;;;;;;;;6.60;100.00;97905.28;5066939;28;19978;-70
2023/01/03 09:07:01;;;;;;;;;;;;;;;6.63;100.00;97909.34;5069849;28;19916;-71
2023/01/03 09:09:27;;;;;;;;;;;;;;;6.41;100.00;97910.94;5085590;28;20005;-72
2023/01/03 09:11:52;;;;;;;;;;;;;;;6.64;100.00;97909.00;5065205;28;19917;-71
2023/01/03 09:14:17;;;;;;;;;;;;;;;6.55;100.00;97912.78;5070764;28;19916;-70
2023/01/03 09:16:43;;;;;;;;;;;;;;;6.60;100.00;97913.47;5060983;28;19955;-71
2023/01/03 09:19:09;;;;;;;;;;;;;;;6.57;100.00;97916.00;5066627;28;19943;-70
2023/01/03 09:21:34;;;;;;;;;;;;;;;6.97;100.00;97910.59;5063951;28;19916;-71
2023/01/03 09:23:59;;;;;;;;;;;;;;;7.01;100.00;97909.69;5032269;28;20019;-71
2023/01/03 09:26:24;;;;;;;;;;;;;;;7.09;100.00;97919.00;5061882;28;20026;-72
2023/01/03 09:28:50;;;;;;;;;;;;;;;6.85;100.00;97927.56;5049295;28;19923;-71
2023/01/03 09:31:15;;;;;;;;;;;;;;;6.96;100.00;97930.81;5065225;28;20365;-71
2023/01/03 09:33:41;;;;;;;;;;;;;;;6.84;100.00;97936.81;5049846;28;20625;-72
2023/01/03 09:36:06;;;;;;;;;;;;;;;6.89;100.00;97939.41;5044865;28;20040;-71
2023/01/03 09:38:31;;;;;;;;;;;;;;;6.99;100.00;97941.88;5062774;28;19919;-71
2023/01/03 09:40:59;;;;;;;;;;;;;;;7.17;100.00;97939.25;5086292;28;20006;-72
2023/01/03 09:43:28;;;;;;;;;;;;;;;7.30;100.00;97945.72;5079470;28;20419;-71
2023/01/03 09:45:57;;;;;;;;;;;;;;;7.50;100.00;97952.53;5088022;28;19916;-70
2023/01/03 09:48:28;;;;;;;;;;;;;;;7.79;100.00;97951.94;5079853;28;20350;-71
2023/01/03 09:50:53;;;;;;;;;;;;;;;7.88;100.00;97950.03;5087917;28;19930;-71
2023/01/03 10:05:05;;;;;;;;;;;;;;;7.95;100.00;97941.41;5085725;28;20010;-71
2023/01/03 10:07:36;;;;;;;;;;;;;;;8.24;100.00;97940.78;5084809;28;19916;-71
2023/01/03 10:10:20;;;;;;;;;;;;;;;8.32;100.00;97936.44;5083354;28;19927;-71
2023/01/03 10:13:08;;;;;;;;;;;;;;;8.48;100.00;97939.50;5070695;28;19967;-71
2023/01/03 10:15:45;;;;;;;;;;;;;;;8.55;100.00;97939.81;5080958;28;19987;-71
2023/01/03 10:18:12;;;;;;;;;;;;;;;8.68;100.00;97933.41;5062779;28;19943;-71
2023/01/03 10:20:43;;;;;;;;;;;;;;;8.71;100.00;97938.19;5068268;28;19916;-70
2023/01/03 10:23:10;;;;;;;;;;;;;;;8.67;100.00;97937.25;5081927;28;19916;-71
2023/01/03 10:25:36;;;;;;;;;;;;;;;8.67;100.00;97931.00;5087093;28;19962;-72
2023/01/03 10:28:08;;;;;;;;;;;;;;;8.59;100.00;97929.88;5068615;28;19983;-69
2023/01/03 10:30:43;;;;;;;;;;;;;;;8.51;100.00;97928.75;5086589;28;19978;-71
2023/01/03 10:33:26;;;;;;;;;;;;;;;8.42;100.00;97926.03;5081652;28;19916;-72
2023/01/03 10:35:52;;;;;;;;;;;;;;;8.35;100.00;97925.66;5085892;28;19916;-72
2023/01/03 10:38:17;;;;;;;;;;;;;;;8.46;100.00;97920.72;5073726;28;19916;-72
2023/01/03 10:40:44;;;;;;;;;;;;;;;8.45;100.00;97916.41;5106791;28;19938;-71
2023/01/03 10:43:13;;;;;;;;;;;;;;;8.36;100.00;97912.84;5081086;28;19959;-73
2023/01/03 10:45:51;;;;;;;;;;;;;;;8.31;100.00;97918.47;5105082;28;19919;-73
2023/01/03 10:48:17;;;;;;;;;;;;;;;8.15;100.00;97913.47;5100744;28;19919;-71
2023/01/03 10:50:42;;;;;;;;;;;;;;;8.18;100.00;97914.78;5085992;28;19926;-71
2023/01/03 10:53:09;;;;;;;;;;;;;;;8.29;100.00;97910.59;5101436;28;19919;-71
2023/01/03 10:55:43;;;;;;;;;;;;;;;8.52;100.00;97916.72;5087230;28;19920;-72
2023/01/03 10:58:23;;;;;;;;;;;;;;;8.44;100.00;97917.50;5099716;28;20372;-72
2023/01/03 11:00:50;;;;;;;;;;;;;;;8.54;100.00;97913.66;5105922;28;20036;-73
2023/01/03 11:03:18;;;;;;;;;;;;;;;8.68;100.00;97917.00;5083576;28;19920;-71
2023/01/03 11:05:48;;;;;;;;;;;;;;;8.67;100.00;97917.34;5086348;28;19920;-74
2023/01/03 11:08:21;;;;;;;;;;;;;;;8.95;100.00;97924.03;5064435;28;19915;-71
2023/01/03 11:10:49;;;;;;;;;;;;;;;8.87;100.00;97919.38;5086645;28;19972;-72
2023/01/03 11:13:33;;;;;;;;;;;;;;;8.89;100.00;97916.31;5065133;28;19969;-72
2023/01/03 11:15:59;;;;;;;;;;;;;;;8.79;100.00;97917.47;5078021;28;19922;-72
2023/01/03 11:18:28;;;;;;;;;;;;;;;8.80;100.00;97917.16;5036450;28;20139;-72
2023/01/03 11:21:06;;;;;;;;;;;;;;;8.88;100.00;97910.06;5068180;28;19924;-72
2023/01/03 11:23:34;;;;;;;;;;;;;;;8.92;100.00;97908.25;5066255;28;19916;-71
2023/01/03 11:26:16;;;;;;;;;;;;;;;8.96;100.00;97906.47;5085532;28;19927;-73
2023/01/03 11:28:41;;;;;;;;;;;;;;;9.10;100.00;97906.28;5085489;28;19966;-72
2023/01/03 11:31:14;;;;;;;;;;;;;;;9.22;100.00;97907.50;5062559;28;19955;-71
2023/01/03 11:34:05;;;;;;;;;;;;;;;9.29;100.00;97905.91;5066976;28;19924;-72
2023/01/03 11:36:34;;;;;;;;;;;;;;;9.23;100.00;97899.00;5049451;28;19968;-72
2023/01/03 11:39:18;;;;;;;;;;;;;;;8.96;100.00;97905.69;5085302;28;19924;-72
2023/01/03 11:42:02;;;;;;;;;;;;;;;8.84;100.00;97898.19;5084685;28;19924;-73
2023/01/03 11:44:44;;;;;;;;;;;;;;;8.42;100.00;97892.47;5064238;28;19916;-73
2023/01/03 11:47:28;;;;;;;;;;;;;;;8.49;100.00;97892.78;5062486;28;19970;-72
2023/01/03 11:50:02;;;;;;;;;;;;;;;8.53;100.00;97887.47;5068298;28;19947;-72
2023/01/03 11:52:32;;;;;;;;;;;;;;;8.39;100.00;97893.06;5082452;28;19962;-74
2023/01/03 11:55:17;;;;;;;;;;;;;;;8.25;100.00;97890.53;5085499;28;19920;-72
2023/01/03 11:57:54;;;;;;;;;;;;;;;8.29;100.00;97886.03;5083663;28;20371;-73
2023/01/03 12:00:38;;;;;;;;;;;;;;;8.41;100.00;97893.56;5078201;28;19923;-72
2023/01/03 12:03:06;;;;;;;;;;;;;;;8.55;100.00;97888.75;5081513;28;19923;-69
2023/01/03 12:05:41;;;;;;;;;;;;;;;8.79;100.00;97888.22;5082538;28;19917;-73
2023/01/03 12:08:10;;;;;;;;;;;;;;;8.98;100.00;97884.28;5078594;28;19976;-74
2023/01/03 12:10:48;;;;;;;;;;;;;;;9.03;100.00;97886.84;5083194;28;20413;-73
2023/01/03 12:13:25;;;;;;;;;;;;;;;8.95;100.00;97890.44;5063432;28;19920;-74
2023/01/03 12:16:06;;;;;;;;;;;;;;;8.89;100.00;97895.25;5081854;28;19920;-74
2023/01/03 12:18:32;;;;;;;;;;;;;;;8.86;100.00;97887.72;5072698;28;20402;-72
2023/01/03 12:21:01;;;;;;;;;;;;;;;8.80;100.00;97892.56;5084621;28;19916;-72
2023/01/03 12:23:39;;;;;;;;;;;;;;;8.84;100.00;97886.44;5062873;28;19959;-72
2023/01/03 12:26:07;;;;;;;;;;;;;;;8.85;100.00;97888.84;5060679;28;19916;-69
2023/01/03 12:28:49;;;;;;;;;;;;;;;9.05;100.00;97889.25;5083980;28;19963;-72
2023/01/03 12:31:21;;;;;;;;;;;;;;;9.17;100.00;97886.66;5080393;28;20057;-74
2023/01/03 12:34:04;;;;;;;;;;;;;;;8.94;100.00;97883.34;5084637;28;19920;-72
2023/01/03 12:36:36;;;;;;;;;;;;;;;9.02;100.00;97885.25;5083154;28;19920;-73
2023/01/03 12:39:20;;;;;;;;;;;;;;;9.15;100.00;97884.22;5077794;28;19923;-70
2023/01/03 12:41:51;;;;;;;;;;;;;;;9.15;100.00;97889.69;5092292;28;20276;-72
2023/01/03 12:44:19;;;;;;;;;;;;;;;9.20;100.00;97894.19;5074323;28;19927;-72
2023/01/03 12:46:50;;;;;;;;;;;;;;;9.12;100.00;97895.03;5082998;28;19917;-71
2023/01/03 12:49:15;;;;;;;;;;;;;;;8.91;100.00;97882.09;5068569;28;19917;-73
2023/01/03 12:51:40;;;;;;;;;;;;;;;8.96;100.00;97881.09;5034515;28;20399;-72
2023/01/03 12:54:05;;;;;;;;;;;;;;;9.01;100.00;97880.91;5047143;28;20508;-72
2023/01/03 12:56:50;;;;;;;;;;;;;;;9.07;100.00;97879.59;5068390;28;19921;-71
2023/01/03 12:59:21;;;;;;;;;;;;;;;9.25;100.00;97885.78;5049192;28;19923;-72
2023/01/03 13:01:59;;;;;;;;;;;;;;;9.09;100.00;97888.28;5034938;28;19916;-73
2023/01/03 13:04:27;;;;;;;;;;;;;;;9.04;100.00;97880.28;5045261;28;19979;-72
2023/01/03 13:07:00;;;;;;;;;;;;;;;9.02;100.00;97877.06;5068114;28;20058;-71
2023/01/03 13:09:34;;;;;;;;;;;;;;;8.99;100.00;97875.78;5062074;28;20041;-72
2023/01/03 13:12:07;;;;;;;;;;;;;;;9.07;100.00;97879.59;5064066;28;19924;-71
2023/01/03 13:14:50;;;;;;;;;;;;;;;9.12;100.00;97878.63;5045996;28;19920;-73
2023/01/03 13:17:18;;;;;;;;;;;;;;;9.04;100.00;97879.44;5074658;28;19931;-72
2023/01/03 13:19:50;;;;;;;;;;;;;;;8.92;100.00;97870.00;5084118;28;19920;-71
2023/01/03 13:22:20;;;;;;;;;;;;;;;8.97;100.00;97882.72;5078493;28;19952;-73
2023/01/03 13:24:48;;;;;;;;;;;;;;;8.90;100.00;97876.94;5083901;28;20007;-71
2023/01/03 13:27:16;;;;;;;;;;;;;;;8.84;100.00;97879.06;5078755;28;19920;-72
2023/01/03 13:29:43;;;;;;;;;;;;;;;8.91;100.00;97878.53;5083946;28;19916;-72
2023/01/03 13:32:20;;;;;;;;;;;;;;;8.98;100.00;97873.38;5079353;28;19920;-71
2023/01/03 13:34:55;;;;;;;;;;;;;;;8.93;100.00;97884.47;5084745;28;19916;-72
2023/01/03 13:37:23;;;;;;;;;;;;;;;8.87;100.00;97888.53;5077453;28;19973;-72
2023/01/03 13:39:51;;;;;;;;;;;;;;;8.64;100.00;97887.94;5083659;28;19983;-71
2023/01/03 13:42:36;;;;;;;;;;;;;;;8.52;100.00;97877.69;5078488;28;19944;-73
2023/01/03 13:45:14;;;;;;;;;;;;;;;8.52;100.00;97885.88;5063932;28;19921;-69
2023/01/03 13:47:42;;;;;;;;;;;;;;;8.60;100.00;97885.84;5064839;28;20338;-73
2023/01/03 13:50:21;;;;;;;;;;;;;;;8.55;100.00;97879.75;5076746;28;19920;-73